createdAt,value
2022-11-19T00:00:01.662Z,100.00
2022-11-19T00:02:36.908Z,100.00
2022-11-19T00:05:09.271Z,100.00
2022-11-19T00:07:42.311Z,100.00
2022-11-19T00:10:14.734Z,100.00
2022-11-19T00:12:55.467Z,100.00
2022-11-19T00:15:27.906Z,100.00
2022-11-19T00:18:00.250Z,100.00
2022-11-19T00:20:33.836Z,100.00
2022-11-19T00:23:06.804Z,100.00
2022-11-19T00:25:39.100Z,100.00
2022-11-19T00:28:11.382Z,100.00
2022-11-19T00:30:48.461Z,100.00
2022-11-19T00:33:21.210Z,100.00
2022-11-19T00:35:55.344Z,100.00
2022-11-19T00:38:29.342Z,100.00
2022-11-19T00:41:06.354Z,100.00
2022-11-19T00:43:47.934Z,100.00
2022-11-19T00:46:21.948Z,100.00
2022-11-19T00:48:55.545Z,100.00
2022-11-19T00:51:29.710Z,100.00
2022-11-19T00:54:02.800Z,100.00
2022-11-19T00:56:35.265Z,100.00
2022-11-19T00:59:07.613Z,100.00
2022-11-19T01:01:40.009Z,100.00
2022-11-19T01:04:12.414Z,100.00
2022-11-19T01:06:45.045Z,100.00
2022-11-19T01:09:18.413Z,100.00
2022-11-19T01:11:50.915Z,100.00
2022-11-19T01:14:23.447Z,100.00
2022-11-19T01:16:55.851Z,100.00
2022-11-19T01:19:28.189Z,100.00
2022-11-19T01:22:00.496Z,100.00
2022-11-19T01:24:33.602Z,100.00
2022-11-19T01:27:05.962Z,100.00
2022-11-19T01:29:38.308Z,100.00
2022-11-19T01:32:10.621Z,100.00
2022-11-19T01:34:42.930Z,100.00
2022-11-19T01:37:15.290Z,100.00
2022-11-19T01:39:48.332Z,100.00
2022-11-19T01:42:49.026Z,100.00
2022-11-19T01:45:34.113Z,100.00
2022-11-19T01:48:11.439Z,100.00
2022-11-19T01:50:48.053Z,100.00
2022-11-19T01:53:21.964Z,100.00
2022-11-19T01:55:56.086Z,100.00
2022-11-19T01:58:28.447Z,100.00
2022-11-19T02:01:00.869Z,100.00
2022-11-19T02:03:34.422Z,100.00
2022-11-19T02:06:08.145Z,100.00
2022-11-19T02:08:42.310Z,100.00
2022-11-19T02:11:59.770Z,100.00
2022-11-19T02:15:10.725Z,100.00
2022-11-19T02:18:04.764Z,100.00
2022-11-19T02:21:05.932Z,100.00
2022-11-19T02:24:00.353Z,100.00
2022-11-19T02:27:05.260Z,100.00
2022-11-19T02:30:01.540Z,100.00
2022-11-19T02:32:38.999Z,100.00
2022-11-19T02:35:21.733Z,100.00
2022-11-19T02:37:59.352Z,100.00
2022-11-19T02:40:39.099Z,100.00
2022-11-19T02:43:15.351Z,100.00
2022-11-19T02:45:52.434Z,100.00
2022-11-19T02:48:30.486Z,100.00
2022-11-19T02:51:07.764Z,100.00
2022-11-19T02:53:40.128Z,100.00
2022-11-19T02:56:13.814Z,100.00
2022-11-19T02:59:09.491Z,100.00
2022-11-19T03:02:03.967Z,100.00
2022-11-19T03:04:36.302Z,100.00
2022-11-19T03:07:12.294Z,100.00
2022-11-19T03:09:49.445Z,100.00
2022-11-19T03:12:27.971Z,100.00
2022-11-19T03:15:22.074Z,100.00
2022-11-19T03:18:04.006Z,100.00
2022-11-19T03:20:40.352Z,100.00
2022-11-19T03:23:20.988Z,100.00
2022-11-19T03:25:58.306Z,100.00
2022-11-19T03:28:37.818Z,100.00
2022-11-19T03:31:11.314Z,100.00
2022-11-19T03:33:47.844Z,100.00
2022-11-19T03:36:23.718Z,100.00
2022-11-19T03:39:02.288Z,100.00
2022-11-19T03:41:37.546Z,100.00
2022-11-19T03:44:13.484Z,100.00
2022-11-19T03:46:50.449Z,100.00
2022-11-19T03:49:30.933Z,100.00
2022-11-19T03:52:09.633Z,100.00
2022-11-19T03:54:42.740Z,100.00
2022-11-19T03:57:18.166Z,100.00
2022-11-19T03:59:50.638Z,100.00
2022-11-19T04:02:23.068Z,100.00
2022-11-19T04:04:56.037Z,100.00
2022-11-19T04:07:28.406Z,100.00
2022-11-19T04:10:00.804Z,100.00
2022-11-19T04:12:33.124Z,100.00
2022-11-19T04:15:06.300Z,100.00
2022-11-19T04:17:38.745Z,100.00
2022-11-19T04:20:11.953Z,100.00
2022-11-19T04:22:44.277Z,100.00
2022-11-19T04:25:16.764Z,100.00
2022-11-19T04:27:49.096Z,100.00
2022-11-19T04:30:21.513Z,100.00
2022-11-19T04:32:53.813Z,100.00
2022-11-19T04:35:26.815Z,100.00
2022-11-19T04:37:59.221Z,100.00
2022-11-19T04:40:31.554Z,100.00
2022-11-19T04:43:03.892Z,100.00
2022-11-19T04:45:36.315Z,100.00
2022-11-19T04:48:08.621Z,100.00
2022-11-19T04:50:42.621Z,100.00
2022-11-19T04:53:14.932Z,100.00
2022-11-19T04:55:47.292Z,100.00
2022-11-19T04:58:19.695Z,100.00
2022-11-19T05:00:52.112Z,100.00
2022-11-19T05:03:35.117Z,100.00
2022-11-19T05:06:08.295Z,100.00
2022-11-19T05:08:40.638Z,100.00
2022-11-19T05:11:13.224Z,100.00
2022-11-19T05:13:45.595Z,100.00
2022-11-19T05:16:17.911Z,100.00
2022-11-19T05:18:50.284Z,100.00
2022-11-19T05:21:23.320Z,100.00
2022-11-19T05:23:55.669Z,100.00
2022-11-19T05:26:28.004Z,100.00
2022-11-19T05:29:00.393Z,100.00
2022-11-19T05:31:32.730Z,100.00
2022-11-19T05:34:05.206Z,100.00
2022-11-19T05:36:38.252Z,100.00
2022-11-19T05:39:10.645Z,100.00
2022-11-19T05:41:42.917Z,100.00
2022-11-19T05:44:15.237Z,100.00
2022-11-19T05:46:47.647Z,100.00
2022-11-19T05:49:20.206Z,100.00
2022-11-19T05:51:53.450Z,100.00
2022-11-19T05:54:25.794Z,100.00
2022-11-19T05:56:58.206Z,100.00
2022-11-19T05:59:30.551Z,100.00
2022-11-19T06:02:02.942Z,100.00
2022-11-19T06:04:35.333Z,100.00
2022-11-19T06:07:08.360Z,100.00
2022-11-19T06:09:40.775Z,100.00
2022-11-19T06:12:13.111Z,100.00
2022-11-19T06:14:45.470Z,100.00
2022-11-19T06:17:17.805Z,100.00
2022-11-19T06:19:50.140Z,100.00
2022-11-19T06:22:23.250Z,100.00
2022-11-19T06:24:55.586Z,100.00
2022-11-19T06:27:27.967Z,100.00
2022-11-19T06:30:00.530Z,100.00
2022-11-19T06:32:32.990Z,100.00
2022-11-19T06:35:06.148Z,100.00
2022-11-19T06:37:39.160Z,100.00
2022-11-19T06:40:13.275Z,100.00
2022-11-19T06:42:49.780Z,100.00
2022-11-19T06:45:23.253Z,100.00
2022-11-19T06:47:55.554Z,100.00
2022-11-19T06:50:27.950Z,100.00
2022-11-19T06:53:00.937Z,100.00
2022-11-19T06:55:33.324Z,100.00
2022-11-19T06:58:07.020Z,100.00
2022-11-19T07:00:39.363Z,100.00
2022-11-19T07:03:30.311Z,100.00
2022-11-19T07:06:21.262Z,100.00
2022-11-19T07:08:54.266Z,100.00
2022-11-19T07:11:26.580Z,100.00
2022-11-19T07:13:58.983Z,100.00
2022-11-19T07:16:33.787Z,100.00
2022-11-19T07:19:07.983Z,100.00
2022-11-19T07:21:40.549Z,100.00
2022-11-19T07:24:16.573Z,100.00
2022-11-19T07:26:49.086Z,100.00
2022-11-19T07:29:21.838Z,100.00
2022-11-19T07:31:54.620Z,100.00
2022-11-19T07:34:27.192Z,100.00
2022-11-19T07:36:59.553Z,100.00
2022-11-19T07:39:32.579Z,100.00
2022-11-19T07:42:23.237Z,100.00
2022-11-19T07:44:57.845Z,100.00
2022-11-19T07:47:30.239Z,100.00
2022-11-19T07:50:03.510Z,100.00
2022-11-19T07:52:35.999Z,100.00
2022-11-19T07:55:10.158Z,100.00
2022-11-19T07:57:42.525Z,100.00
2022-11-19T08:00:15.417Z,100.00
2022-11-19T08:02:48.962Z,100.00
2022-11-19T08:05:21.482Z,100.00
2022-11-19T08:07:53.846Z,100.00
2022-11-19T08:10:31.589Z,100.00
2022-11-19T08:13:04.386Z,100.00
2022-11-19T08:15:36.766Z,100.00
2022-11-19T08:18:14.875Z,100.00
2022-11-19T08:20:47.984Z,99.61
2022-11-19T08:23:22.243Z,100.00
2022-11-19T08:25:55.334Z,100.00
2022-11-19T08:28:28.189Z,100.00
2022-11-19T08:31:05.884Z,100.00
2022-11-19T08:33:38.201Z,100.00
2022-11-19T08:36:12.330Z,99.16
2022-11-19T08:38:44.910Z,97.79
2022-11-19T08:41:36.029Z,98.10
2022-11-19T08:44:08.521Z,98.50
2022-11-19T08:46:41.306Z,98.05
2022-11-19T08:49:14.214Z,99.86
2022-11-19T08:51:46.655Z,98.55
2022-11-19T08:54:19.456Z,98.55
2022-11-19T08:56:52.791Z,98.38
2022-11-19T08:59:25.176Z,98.03
2022-11-19T09:01:57.575Z,96.66
2022-11-19T09:04:29.931Z,97.69
2022-11-19T09:07:02.539Z,97.71
2022-11-19T09:09:35.047Z,96.82
2022-11-19T09:12:08.756Z,96.33
2022-11-19T09:14:41.096Z,96.51
2022-11-19T09:17:13.515Z,95.57
2022-11-19T09:19:45.840Z,94.74
2022-11-19T09:22:18.223Z,94.26
2022-11-19T09:24:50.569Z,93.07
2022-11-19T09:27:23.649Z,92.85
2022-11-19T09:29:56.053Z,93.78
2022-11-19T09:32:28.478Z,93.95
2022-11-19T09:35:00.844Z,94.14
2022-11-19T09:37:35.639Z,92.21
2022-11-19T09:40:11.523Z,92.45
2022-11-19T09:43:00.790Z,92.95
2022-11-19T09:45:46.370Z,91.75
2022-11-19T09:48:30.992Z,91.75
2022-11-19T09:51:08.646Z,91.16
2022-11-19T09:53:46.592Z,91.08
2022-11-19T09:56:29.543Z,92.07
2022-11-19T09:59:13.256Z,91.17
2022-11-19T10:01:45.657Z,90.35
2022-11-19T10:04:22.330Z,89.95
2022-11-19T10:07:07.531Z,87.27
2022-11-19T10:09:58.388Z,87.44
2022-11-19T10:12:52.533Z,87.27
2022-11-19T10:15:37.358Z,87.12
2022-11-19T10:18:18.896Z,86.74
2022-11-19T10:20:59.635Z,86.79
2022-11-19T10:23:48.593Z,86.93
2022-11-19T10:26:28.121Z,83.45
2022-11-19T10:29:03.539Z,76.67
2022-11-19T10:31:39.149Z,75.17
2022-11-19T10:34:19.025Z,79.51
2022-11-19T10:36:56.174Z,73.66
2022-11-19T10:39:35.533Z,70.87
2022-11-19T10:42:18.327Z,69.28
2022-11-19T10:44:53.551Z,69.38
2022-11-19T10:47:34.405Z,69.87
2022-11-19T10:50:14.889Z,67.82
2022-11-19T10:52:52.430Z,66.21
2022-11-19T10:55:28.783Z,65.99
2022-11-19T10:58:10.494Z,65.68
2022-11-19T11:00:43.797Z,66.25
2022-11-19T11:03:24.120Z,65.95
2022-11-19T11:05:59.141Z,65.06
2022-11-19T11:08:32.139Z,65.06
2022-11-19T11:11:04.840Z,64.88
2022-11-19T11:13:57.409Z,64.66
2022-11-19T11:16:43.607Z,64.79
2022-11-19T11:19:19.144Z,65.35
2022-11-19T11:21:53.074Z,65.25
2022-11-19T11:24:32.896Z,65.56
2022-11-19T11:27:18.924Z,65.91
2022-11-19T11:30:05.157Z,66.65
2022-11-19T11:32:39.149Z,66.45
2022-11-19T11:35:31.393Z,67.40
2022-11-19T11:38:05.064Z,67.64
2022-11-19T11:40:37.698Z,67.03
2022-11-19T11:43:17.502Z,67.17
2022-11-19T11:45:56.530Z,66.21
2022-11-19T11:48:34.780Z,67.32
2022-11-19T11:51:08.125Z,67.84
2022-11-19T11:53:42.274Z,68.25
2022-11-19T11:56:21.056Z,68.10
2022-11-19T11:58:53.386Z,68.26
2022-11-19T12:01:25.732Z,68.43
2022-11-19T12:03:58.908Z,69.20
2022-11-19T12:06:38.975Z,67.35
2022-11-19T12:09:22.498Z,67.71
2022-11-19T12:12:01.474Z,67.67
2022-11-19T12:14:40.026Z,68.00
2022-11-19T12:17:29.737Z,67.95
2022-11-19T12:20:20.231Z,68.04
2022-11-19T12:23:11.265Z,67.57
2022-11-19T12:25:51.279Z,67.62
2022-11-19T12:28:37.112Z,66.93
2022-11-19T12:31:27.265Z,67.01
2022-11-19T12:34:22.335Z,67.05
2022-11-19T12:37:03.183Z,65.45
2022-11-19T12:39:46.284Z,65.93
2022-11-19T12:42:33.476Z,65.53
2022-11-19T12:45:17.100Z,66.15
2022-11-19T12:48:09.680Z,66.21
2022-11-19T12:50:49.810Z,66.05
2022-11-19T12:53:35.304Z,67.04
2022-11-19T12:56:22.823Z,66.36
2022-11-19T12:59:07.075Z,67.04
2022-11-19T13:01:45.183Z,67.35
2022-11-19T13:04:24.845Z,67.95
2022-11-19T13:07:02.475Z,68.04
2022-11-19T13:09:40.239Z,68.10
2022-11-19T13:12:16.790Z,68.01
2022-11-19T13:14:55.246Z,68.47
2022-11-19T13:17:31.067Z,68.71
2022-11-19T13:20:12.125Z,68.34
2022-11-19T13:22:46.860Z,67.79
2022-11-19T13:25:23.960Z,67.49
2022-11-19T13:28:01.148Z,68.11
2022-11-19T13:30:34.911Z,67.81
2022-11-19T13:33:18.429Z,67.61
2022-11-19T13:35:58.087Z,67.34
2022-11-19T13:38:43.825Z,66.54
2022-11-19T13:41:21.047Z,66.56
2022-11-19T13:44:15.051Z,66.68
2022-11-19T13:46:54.493Z,66.77
2022-11-19T13:49:28.232Z,66.72
2022-11-19T13:52:07.001Z,66.67
2022-11-19T13:54:41.143Z,66.55
2022-11-19T13:57:26.363Z,66.18
2022-11-19T14:00:04.175Z,66.09
2022-11-19T14:03:19.698Z,65.78
2022-11-19T14:06:22.509Z,65.47
2022-11-19T14:09:11.853Z,66.05
2022-11-19T14:12:22.790Z,65.63
2022-11-19T14:15:33.922Z,65.56
2022-11-19T14:18:36.136Z,65.59
2022-11-19T14:22:04.659Z,66.13
2022-11-19T14:25:15.520Z,65.99
2022-11-19T14:27:47.967Z,66.47
2022-11-19T14:31:00.154Z,66.13
2022-11-19T14:33:59.122Z,66.13
2022-11-19T14:36:43.827Z,66.59
2022-11-19T14:39:21.719Z,66.41
2022-11-19T14:42:13.286Z,66.53
2022-11-19T14:44:46.304Z,67.05
2022-11-19T14:47:33.837Z,67.15
2022-11-19T14:50:09.368Z,67.04
2022-11-19T14:52:51.334Z,67.18
2022-11-19T14:55:26.148Z,67.12
2022-11-19T14:58:01.959Z,66.69
2022-11-19T15:00:36.792Z,66.64
2022-11-19T15:03:16.853Z,66.87
2022-11-19T15:05:49.775Z,67.03
2022-11-19T15:08:45.520Z,67.29
2022-11-19T15:11:21.370Z,67.19
2022-11-19T15:14:26.852Z,67.03
2022-11-19T15:17:03.738Z,67.70
2022-11-19T15:19:47.127Z,67.92
2022-11-19T15:22:40.833Z,67.63
2022-11-19T15:25:25.207Z,67.98
2022-11-19T15:28:11.982Z,67.46
2022-11-19T15:31:12.470Z,67.98
2022-11-19T15:33:59.904Z,67.74
2022-11-19T15:36:36.075Z,67.65
2022-11-19T15:39:16.041Z,67.06
2022-11-19T15:42:01.764Z,67.22
2022-11-19T15:44:41.315Z,66.73
2022-11-19T15:47:17.472Z,66.54
2022-11-19T15:49:51.277Z,66.57
2022-11-19T15:52:27.246Z,66.67
2022-11-19T15:55:17.579Z,66.11
2022-11-19T15:57:53.690Z,65.92
2022-11-19T16:00:29.054Z,65.97
2022-11-19T16:03:03.113Z,66.01
2022-11-19T16:05:35.640Z,66.24
2022-11-19T16:08:12.859Z,66.46
2022-11-19T16:10:46.682Z,66.07
2022-11-19T16:13:40.273Z,65.69
2022-11-19T16:16:34.086Z,66.34
2022-11-19T16:19:06.446Z,66.26
2022-11-19T16:21:40.251Z,66.27
2022-11-19T16:24:34.614Z,66.19
2022-11-19T16:27:10.960Z,66.19
2022-11-19T16:29:43.734Z,67.03
2022-11-19T16:32:19.184Z,67.44
2022-11-19T16:34:51.692Z,67.82
2022-11-19T16:37:24.136Z,67.43
2022-11-19T16:39:57.299Z,68.18
2022-11-19T16:42:30.267Z,68.81
2022-11-19T16:45:07.762Z,68.87
2022-11-19T16:47:51.679Z,68.86
2022-11-19T16:50:31.970Z,69.33
2022-11-19T16:53:05.658Z,69.38
2022-11-19T16:55:42.108Z,69.16
2022-11-19T16:58:17.963Z,68.60
2022-11-19T17:00:54.603Z,68.84
2022-11-19T17:03:36.137Z,69.55
2022-11-19T17:06:20.058Z,69.69
2022-11-19T17:08:57.336Z,73.01
2022-11-19T17:12:14.077Z,74.72
2022-11-19T17:14:53.461Z,76.40
2022-11-19T17:17:40.270Z,75.99
2022-11-19T17:20:59.004Z,76.32
2022-11-19T17:23:33.907Z,76.20
2022-11-19T17:26:07.708Z,76.75
2022-11-19T17:28:44.649Z,77.79
2022-11-19T17:31:19.392Z,80.05
2022-11-19T17:33:54.882Z,80.78
2022-11-19T17:36:27.218Z,81.81
2022-11-19T17:38:59.647Z,81.62
2022-11-19T17:41:50.267Z,81.29
2022-11-19T17:44:33.844Z,80.92
2022-11-19T17:47:22.286Z,80.74
2022-11-19T17:49:55.607Z,80.17
2022-11-19T17:52:29.841Z,80.43
2022-11-19T17:55:15.142Z,80.05
2022-11-19T17:57:47.518Z,80.63
2022-11-19T18:00:20.651Z,80.53
2022-11-19T18:02:53.050Z,79.87
2022-11-19T18:05:28.494Z,79.88
2022-11-19T18:08:00.851Z,79.15
2022-11-19T18:10:33.255Z,78.57
2022-11-19T18:13:05.898Z,76.91
2022-11-19T18:15:38.972Z,76.52
2022-11-19T18:18:11.387Z,76.19
2022-11-19T18:20:43.705Z,75.29
2022-11-19T18:23:16.280Z,74.97
2022-11-19T18:25:48.648Z,75.37
2022-11-19T18:28:22.378Z,75.23
2022-11-19T18:30:55.431Z,75.18
2022-11-19T18:33:27.813Z,74.82
2022-11-19T18:36:00.153Z,75.25
2022-11-19T18:38:33.328Z,75.08
2022-11-19T18:41:06.366Z,74.84
2022-11-19T18:43:57.310Z,75.06
2022-11-19T18:46:30.288Z,75.10
2022-11-19T18:49:03.691Z,75.12
2022-11-19T18:51:36.105Z,75.72
2022-11-19T18:54:10.792Z,75.45
2022-11-19T18:56:43.191Z,75.83
2022-11-19T18:59:15.577Z,75.98
2022-11-19T19:01:48.860Z,75.91
2022-11-19T19:04:21.738Z,76.48
2022-11-19T19:06:54.330Z,76.54
2022-11-19T19:09:26.697Z,77.01
2022-11-19T19:12:17.441Z,76.79
2022-11-19T19:14:50.813Z,76.62
2022-11-19T19:17:24.066Z,76.48
2022-11-19T19:19:56.418Z,76.79
2022-11-19T19:22:29.010Z,76.65
2022-11-19T19:25:01.790Z,76.93
2022-11-19T19:27:34.362Z,77.17
2022-11-19T19:30:08.897Z,77.09
2022-11-19T19:32:43.208Z,77.60
2022-11-19T19:35:15.882Z,77.02
2022-11-19T19:37:48.707Z,77.12
2022-11-19T19:40:21.221Z,77.44
2022-11-19T19:42:53.669Z,77.21
2022-11-19T19:45:25.994Z,77.05
2022-11-19T19:47:59.019Z,77.33
2022-11-19T19:50:31.417Z,77.61
2022-11-19T19:53:04.187Z,78.03
2022-11-19T19:55:36.586Z,78.55
2022-11-19T19:58:09.107Z,78.99
2022-11-19T20:00:41.462Z,78.84
2022-11-19T20:03:16.534Z,79.37
2022-11-19T20:05:49.436Z,79.25
2022-11-19T20:08:21.864Z,78.16
2022-11-19T20:11:03.811Z,78.13
2022-11-19T20:13:36.908Z,77.72
2022-11-19T20:16:17.583Z,77.41
2022-11-19T20:18:52.136Z,77.78
2022-11-19T20:21:26.578Z,77.11
2022-11-19T20:23:59.031Z,78.10
2022-11-19T20:26:31.742Z,77.62
2022-11-19T20:29:06.087Z,77.18
2022-11-19T20:31:38.688Z,77.84
2022-11-19T20:34:12.166Z,77.51
2022-11-19T20:36:44.606Z,77.58
2022-11-19T20:39:16.952Z,77.63
2022-11-19T20:42:07.378Z,78.68
2022-11-19T20:44:39.683Z,78.00
2022-11-19T20:47:12.049Z,78.71
2022-11-19T20:49:45.037Z,79.78
2022-11-19T20:52:18.424Z,79.34
2022-11-19T20:54:50.898Z,80.44
2022-11-19T20:57:23.371Z,81.56
2022-11-19T20:59:55.710Z,81.97
2022-11-19T21:02:28.465Z,81.86
2022-11-19T21:05:01.585Z,82.42
2022-11-19T21:07:34.823Z,82.08
2022-11-19T21:10:08.193Z,81.90
2022-11-19T21:13:00.476Z,82.22
2022-11-19T21:15:35.059Z,81.80
2022-11-19T21:18:07.399Z,81.11
2022-11-19T21:20:40.392Z,80.79
2022-11-19T21:23:12.701Z,80.91
2022-11-19T21:25:45.409Z,80.85
2022-11-19T21:28:17.770Z,80.50
2022-11-19T21:30:51.187Z,80.74
2022-11-19T21:33:25.677Z,80.62
2022-11-19T21:35:59.221Z,80.88
2022-11-19T21:38:31.938Z,80.51
2022-11-19T21:41:04.970Z,80.59
2022-11-19T21:43:37.337Z,80.85
2022-11-19T21:46:09.742Z,80.75
2022-11-19T21:48:42.030Z,81.16
2022-11-19T21:51:16.334Z,80.36
2022-11-19T21:53:53.188Z,79.83
2022-11-19T21:56:27.128Z,79.72
2022-11-19T21:58:59.493Z,79.72
2022-11-19T22:01:31.927Z,79.82
2022-11-19T22:04:04.782Z,79.79
2022-11-19T22:06:37.890Z,79.60
2022-11-19T22:09:10.221Z,79.01
2022-11-19T22:11:42.613Z,78.77
2022-11-19T22:14:14.935Z,78.49
2022-11-19T22:16:47.770Z,78.74
2022-11-19T22:19:20.484Z,78.79
2022-11-19T22:21:53.800Z,79.15
2022-11-19T22:24:26.168Z,78.98
2022-11-19T22:26:58.625Z,78.16
2022-11-19T22:29:30.973Z,78.24
2022-11-19T22:32:05.192Z,77.04
2022-11-19T22:34:37.549Z,76.60
2022-11-19T22:37:10.654Z,76.75
2022-11-19T22:39:43.210Z,76.10
2022-11-19T22:42:15.631Z,76.07
2022-11-19T22:44:47.991Z,75.28
2022-11-19T22:47:20.380Z,75.58
2022-11-19T22:49:52.713Z,75.05
2022-11-19T22:52:25.741Z,74.49
2022-11-19T22:54:58.068Z,74.15
2022-11-19T22:57:30.474Z,73.83
2022-11-19T23:00:08.092Z,73.46
2022-11-19T23:02:40.449Z,73.58
2022-11-19T23:05:12.850Z,73.28
2022-11-19T23:07:45.866Z,73.27
2022-11-19T23:10:18.216Z,73.47
2022-11-19T23:13:09.057Z,73.77
2022-11-19T23:15:42.486Z,73.51
2022-11-19T23:18:14.924Z,73.47
2022-11-19T23:20:47.522Z,73.64
2022-11-19T23:23:20.579Z,73.37
2022-11-19T23:25:55.983Z,73.77
2022-11-19T23:28:29.675Z,74.20
2022-11-19T23:31:03.505Z,74.39
2022-11-19T23:33:36.502Z,75.26
2022-11-19T23:36:12.871Z,74.05
2022-11-19T23:38:46.414Z,74.82
2022-11-19T23:41:20.498Z,74.30
2022-11-19T23:43:54.409Z,74.35
2022-11-19T23:46:28.474Z,73.23
2022-11-19T23:49:01.768Z,74.31
2022-11-19T23:51:36.488Z,73.80
2022-11-19T23:54:12.334Z,73.56
2022-11-19T23:56:44.746Z,73.70
2022-11-19T23:59:21.702Z,74.21
